PFJ weather

Patreksfjörður Airport
Patreksfjörður, Westfjords, Iceland

Public forecast

Using degrees Celsius for public forecast. Weather courtesy of forecast.io.

Closest aviation weather report (METAR) to Patreksfjörður Airport

Report is more than 6 hours old.

Closest report is Bildudalur Airport, 11.6 nm (21.5 km) ENE. Retrieved 2019/10/18 16:10 UTC (21 hours ago):

BIBD 181610Z 20003KT CAVOK 05/M04 Q1019

Closest aviation forecast (TAF) to Patreksfjörður Airport

Closest forecast is Reykjavik Airport, 100.0 nm (185.2 km) SSE. Retrieved 2019/10/19 15:09 UTC (0 seconds ago):

TAF BIRK 191304Z 1915/2015 24006KT 9999 FEW015 SCT025 BKN038 TX07/2015Z TN03/2006Z BECMG 2010/2012 18016KT 8000 RA BKN015 OVC025 TEMPO 2013/2015 4000 RA BR OVC010